createdAt,value
2018-09-05T00:00:24.805Z,32.09
2018-09-05T00:02:55.690Z,32.40
2018-09-05T00:05:26.316Z,32.40
2018-09-05T00:07:57.053Z,32.71
2018-09-05T00:10:27.685Z,32.73
2018-09-05T00:12:58.468Z,33.54
2018-09-05T00:15:29.056Z,32.90
2018-09-05T00:17:59.719Z,33.39
2018-09-05T00:20:30.404Z,33.45
2018-09-05T00:23:02.342Z,34.35
2018-09-05T00:25:32.816Z,33.94
2018-09-05T00:28:04.709Z,33.81
2018-09-05T00:30:35.310Z,33.79
2018-09-05T00:33:06.322Z,33.95
2018-09-05T00:35:37.002Z,33.99
2018-09-05T00:38:07.793Z,33.98
2018-09-05T00:40:38.429Z,34.09
2018-09-05T00:43:09.317Z,33.10
2018-09-05T00:45:39.942Z,32.67
2018-09-05T00:48:10.758Z,32.95
2018-09-05T00:50:41.413Z,33.25
2018-09-05T00:53:12.163Z,33.44
2018-09-05T00:55:43.048Z,33.75
2018-09-05T00:58:13.796Z,33.96
2018-09-05T01:00:44.597Z,33.78
2018-09-05T01:03:15.509Z,32.68
2018-09-05T01:05:46.045Z,32.96
2018-09-05T01:08:16.767Z,32.10
2018-09-05T01:10:47.473Z,32.53
2018-09-05T01:13:18.327Z,32.60
2018-09-05T01:15:49.041Z,32.78
2018-09-05T01:18:19.888Z,32.52
2018-09-05T01:20:50.597Z,32.06
2018-09-05T01:23:21.385Z,32.68
2018-09-05T01:25:52.033Z,32.28
2018-09-05T01:28:22.789Z,32.37
2018-09-05T01:30:53.453Z,31.95
2018-09-05T01:33:24.537Z,31.64
2018-09-05T01:36:27.529Z,32.14
2018-09-05T01:38:58.149Z,32.11
2018-09-05T01:41:28.769Z,32.33
2018-09-05T01:43:59.484Z,32.10
2018-09-05T01:46:30.102Z,32.49
2018-09-05T01:49:00.853Z,33.69
2018-09-05T01:51:33.589Z,33.71
2018-09-05T01:54:04.672Z,33.92
2018-09-05T01:56:35.329Z,33.30
2018-09-05T01:59:06.177Z,33.15
2018-09-05T02:01:36.846Z,33.29
2018-09-05T02:04:07.821Z,32.39
2018-09-05T02:06:38.526Z,33.10
2018-09-05T02:09:12.549Z,32.87
2018-09-05T02:11:43.179Z,32.71
2018-09-05T02:14:14.182Z,32.45
2018-09-05T02:16:44.769Z,32.24
2018-09-05T02:19:15.525Z,33.07
2018-09-05T02:21:46.094Z,33.01
2018-09-05T02:24:16.934Z,33.52
2018-09-05T02:26:47.494Z,34.28
2018-09-05T02:29:18.193Z,33.79
2018-09-05T02:31:48.839Z,33.76
2018-09-05T02:34:19.501Z,33.41
2018-09-05T02:36:50.058Z,33.56
2018-09-05T02:39:20.944Z,33.29
2018-09-05T02:41:51.712Z,34.20
2018-09-05T02:44:23.720Z,34.22
2018-09-05T02:46:54.228Z,33.49
2018-09-05T02:49:32.200Z,33.63
2018-09-05T02:52:02.921Z,33.61
2018-09-05T02:55:03.502Z,33.71
2018-09-05T02:57:34.102Z,33.59
2018-09-05T03:00:04.929Z,33.81
2018-09-05T03:02:35.571Z,33.84
2018-09-05T03:05:06.309Z,33.81
2018-09-05T03:07:36.728Z,34.10
2018-09-05T03:10:07.336Z,33.87
2018-09-05T03:12:37.977Z,33.78
2018-09-05T03:15:09.009Z,33.59
2018-09-05T03:17:39.584Z,33.41
2018-09-05T03:20:10.326Z,33.88
2018-09-05T03:22:40.822Z,32.67
2018-09-05T03:25:11.677Z,33.29
2018-09-05T03:27:42.351Z,33.69
2018-09-05T03:30:13.374Z,33.58
2018-09-05T03:32:44.424Z,33.92
2018-09-05T03:35:15.320Z,33.29
2018-09-05T03:37:46.387Z,33.94
2018-09-05T03:40:17.406Z,33.45
2018-09-05T03:42:48.317Z,32.46
2018-09-05T03:45:19.195Z,32.56
2018-09-05T03:47:49.914Z,32.74
2018-09-05T03:50:21.845Z,32.42
2018-09-05T03:52:52.699Z,32.66
2018-09-05T03:55:23.801Z,33.24
2018-09-05T03:57:54.293Z,32.92
2018-09-05T04:00:25.040Z,33.43
2018-09-05T04:02:55.703Z,33.77
2018-09-05T04:05:26.633Z,33.73
2018-09-05T04:07:57.130Z,33.50
2018-09-05T04:10:27.981Z,33.74
2018-09-05T04:12:58.732Z,33.53
2018-09-05T04:15:29.531Z,33.11
2018-09-05T04:18:00.417Z,33.61
2018-09-05T04:20:30.737Z,33.25
2018-09-05T04:23:00.989Z,33.64
2018-09-05T04:25:31.829Z,34.04
2018-09-05T04:28:02.525Z,34.50
2018-09-05T04:30:33.284Z,33.66
2018-09-05T04:33:03.988Z,34.02
2018-09-05T04:35:36.247Z,34.38
2018-09-05T04:38:06.828Z,34.76
2018-09-05T04:40:37.545Z,34.96
2018-09-05T04:43:08.154Z,35.15
2018-09-05T04:45:39.021Z,35.33
2018-09-05T04:48:09.690Z,34.57
2018-09-05T04:50:40.577Z,34.79
2018-09-05T04:53:12.102Z,34.32
2018-09-05T04:55:50.473Z,34.09
2018-09-05T04:58:26.089Z,34.54
2018-09-05T05:00:56.910Z,34.21
2018-09-05T05:03:27.581Z,35.18
2018-09-05T05:05:58.554Z,34.03
2018-09-05T05:08:29.300Z,33.56
2018-09-05T05:11:00.077Z,33.04
2018-09-05T05:13:30.770Z,33.20
2018-09-05T05:16:01.943Z,33.77
2018-09-05T05:18:32.746Z,33.88
2018-09-05T05:21:03.712Z,33.04
2018-09-05T05:23:35.768Z,34.16
2018-09-05T05:26:06.529Z,34.41
2018-09-05T05:28:36.940Z,34.68
2018-09-05T05:31:07.633Z,34.71
2018-09-05T05:33:38.350Z,34.12
2018-09-05T05:36:08.972Z,34.54
2018-09-05T05:38:42.029Z,34.58
2018-09-05T05:41:12.725Z,34.04
2018-09-05T05:43:43.461Z,34.46
2018-09-05T05:46:14.424Z,34.74
2018-09-05T05:48:45.021Z,35.26
2018-09-05T05:51:15.793Z,35.20
2018-09-05T05:53:46.307Z,34.00
2018-09-05T05:56:17.471Z,34.00
2018-09-05T05:58:48.047Z,35.32
2018-09-05T06:01:18.902Z,36.62
2018-09-05T06:03:49.573Z,36.04
2018-09-05T06:06:20.455Z,37.16
2018-09-05T06:08:50.968Z,36.53
2018-09-05T06:11:21.602Z,37.10
2018-09-05T06:13:52.515Z,37.61
2018-09-05T06:16:23.480Z,37.31
2018-09-05T06:18:54.105Z,36.82
2018-09-05T06:21:25.552Z,37.43
2018-09-05T06:23:56.349Z,35.71
2018-09-05T06:26:27.030Z,35.63
2018-09-05T06:28:57.716Z,36.22
2018-09-05T06:31:28.653Z,37.01
2018-09-05T06:33:59.241Z,36.54
2018-09-05T06:36:30.030Z,36.99
2018-09-05T06:39:00.841Z,36.42
2018-09-05T06:41:31.457Z,36.64
2018-09-05T06:44:02.051Z,37.65
2018-09-05T06:46:32.812Z,36.52
2018-09-05T06:49:03.464Z,37.25
2018-09-05T06:51:34.057Z,35.48
2018-09-05T06:54:04.646Z,35.60
2018-09-05T06:56:35.333Z,35.73
2018-09-05T06:59:05.960Z,35.92
2018-09-05T07:01:36.926Z,36.10
2018-09-05T07:04:07.477Z,37.09
2018-09-05T07:06:38.376Z,37.45
2018-09-05T07:09:12.185Z,38.45
2018-09-05T07:11:43.068Z,36.82
2018-09-05T07:14:13.701Z,37.33
2018-09-05T07:16:45.308Z,36.99
2018-09-05T07:19:16.372Z,36.91
2018-09-05T07:21:47.444Z,35.31
2018-09-05T07:24:18.277Z,35.13
2018-09-05T07:26:49.001Z,36.05
2018-09-05T07:29:19.639Z,36.33
2018-09-05T07:31:50.341Z,35.22
2018-09-05T07:34:20.882Z,34.49
2018-09-05T07:36:51.665Z,35.57
2018-09-05T07:39:22.121Z,34.75
2018-09-05T07:41:52.961Z,34.55
2018-09-05T07:44:23.568Z,35.18
2018-09-05T07:46:54.466Z,36.08
2018-09-05T07:49:25.093Z,36.33
2018-09-05T07:51:55.804Z,37.49
2018-09-05T07:54:26.518Z,36.25
2018-09-05T07:56:57.413Z,37.52
2018-09-05T07:59:28.099Z,37.42
2018-09-05T08:01:58.913Z,36.94
2018-09-05T08:04:29.517Z,37.18
2018-09-05T08:07:00.083Z,38.11
2018-09-05T08:09:30.757Z,38.21
2018-09-05T08:12:01.443Z,38.62
2018-09-05T08:14:32.061Z,39.05
2018-09-05T08:17:02.808Z,40.63
2018-09-05T08:19:33.281Z,40.11
2018-09-05T08:22:04.001Z,38.31
2018-09-05T08:24:34.717Z,39.38
2018-09-05T08:27:05.713Z,39.02
2018-09-05T08:29:36.302Z,39.91
2018-09-05T08:32:07.285Z,41.32
2018-09-05T08:34:37.740Z,38.58
2018-09-05T08:37:08.820Z,38.45
2018-09-05T08:39:39.403Z,39.52
2018-09-05T08:42:10.308Z,41.09
2018-09-05T08:44:41.216Z,38.95
2018-09-05T08:47:12.899Z,40.19
2018-09-05T08:49:43.536Z,40.74
2018-09-05T08:52:15.861Z,40.01
2018-09-05T08:54:46.445Z,39.27
2018-09-05T08:57:17.285Z,39.54
2018-09-05T08:59:47.885Z,39.93
2018-09-05T09:02:18.714Z,40.09
2018-09-05T09:04:49.321Z,39.17
2018-09-05T09:07:20.193Z,40.73
2018-09-05T09:09:50.722Z,41.54
2018-09-05T09:12:21.817Z,40.89
2018-09-05T09:14:52.320Z,40.41
2018-09-05T09:17:23.105Z,40.28
2018-09-05T09:19:53.696Z,40.61
2018-09-05T09:22:24.202Z,40.67
2018-09-05T09:24:54.797Z,40.11
2018-09-05T09:27:25.885Z,41.04
2018-09-05T09:29:56.389Z,41.25
2018-09-05T09:32:27.153Z,40.97
2018-09-05T09:34:57.669Z,42.65
2018-09-05T09:37:28.609Z,42.40
2018-09-05T09:39:59.204Z,41.98
2018-09-05T09:42:29.729Z,40.11
2018-09-05T09:45:00.413Z,40.49
2018-09-05T09:47:31.184Z,42.28
2018-09-05T09:50:01.890Z,42.15
2018-09-05T09:53:15.057Z,40.52
2018-09-05T09:55:45.616Z,41.91
2018-09-05T09:58:16.675Z,42.74
2018-09-05T10:00:52.037Z,40.83
2018-09-05T10:03:27.706Z,41.67
2018-09-05T10:06:03.534Z,42.29
2018-09-05T10:08:38.173Z,42.23
2018-09-05T10:11:13.869Z,40.90
2018-09-05T10:13:49.613Z,40.61
2018-09-05T10:16:25.220Z,41.81
2018-09-05T10:18:56.302Z,42.47
2018-09-05T10:21:26.992Z,43.07
2018-09-05T10:23:58.013Z,41.69
2018-09-05T10:26:28.727Z,41.04
2018-09-05T10:28:59.585Z,41.51
2018-09-05T10:31:30.032Z,41.92
2018-09-05T10:34:00.769Z,40.49
2018-09-05T10:36:31.361Z,39.92
2018-09-05T10:39:02.084Z,41.94
2018-09-05T10:41:32.789Z,42.25
2018-09-05T10:44:04.600Z,41.82
2018-09-05T10:46:35.445Z,41.27
2018-09-05T10:49:06.332Z,43.04
2018-09-05T10:51:41.729Z,41.70
2018-09-05T10:54:12.336Z,41.96
2018-09-05T10:56:42.809Z,41.24
2018-09-05T10:59:13.705Z,39.16
2018-09-05T11:01:44.290Z,39.32
2018-09-05T11:04:14.901Z,40.88
2018-09-05T11:06:45.514Z,40.43
2018-09-05T11:09:16.292Z,39.39
2018-09-05T11:11:47.038Z,35.95
2018-09-05T11:14:17.861Z,35.20
2018-09-05T11:16:48.611Z,34.57
2018-09-05T11:19:19.910Z,33.66
2018-09-05T11:21:50.562Z,27.04
2018-09-05T11:28:36.834Z,27.04
2018-09-05T11:31:07.955Z,30.31
2018-09-05T11:33:38.788Z,30.11
2018-09-05T11:36:09.582Z,29.63
2018-09-05T11:38:40.721Z,30.23
2018-09-05T11:41:11.303Z,30.23
2018-09-05T11:43:41.966Z,29.86
2018-09-05T11:46:12.502Z,29.96
2018-09-05T11:48:43.228Z,30.41
2018-09-05T11:51:13.757Z,31.00
2018-09-05T11:53:44.604Z,31.04
2018-09-05T11:56:15.385Z,30.62
2018-09-05T11:58:46.153Z,31.12
2018-09-05T12:01:16.865Z,31.33
2018-09-05T12:03:47.557Z,30.86
2018-09-05T12:06:18.173Z,30.98
2018-09-05T12:08:49.131Z,30.57
2018-09-05T12:11:19.793Z,30.55
2018-09-05T12:13:50.549Z,30.55
2018-09-05T12:16:21.116Z,31.09
2018-09-05T12:18:52.205Z,31.56
2018-09-05T12:21:22.777Z,31.36
2018-09-05T12:23:53.633Z,32.17
2018-09-05T12:26:24.069Z,32.40
2018-09-05T12:28:54.900Z,36.23
2018-09-05T12:31:25.381Z,35.05
2018-09-05T12:33:58.469Z,35.08
2018-09-05T12:36:29.704Z,34.16
2018-09-05T12:39:01.091Z,34.42
2018-09-05T12:41:31.816Z,34.25
2018-09-05T12:44:02.697Z,34.36
2018-09-05T12:46:33.393Z,35.05
2018-09-05T12:49:04.213Z,36.01
2018-09-05T12:51:34.953Z,37.65
2018-09-05T12:54:06.392Z,38.65
2018-09-05T12:56:37.089Z,36.78
2018-09-05T12:59:07.960Z,36.82
2018-09-05T13:01:38.549Z,36.59
2018-09-05T13:04:09.477Z,38.07
2018-09-05T13:06:40.100Z,37.63
2018-09-05T13:09:13.593Z,35.92
2018-09-05T13:11:44.424Z,36.31
2018-09-05T13:14:15.005Z,36.41
2018-09-05T13:16:45.677Z,37.23
2018-09-05T13:19:16.390Z,36.43
2018-09-05T13:21:47.026Z,36.77
2018-09-05T13:24:17.644Z,36.44
2018-09-05T13:26:48.223Z,36.50
2018-09-05T13:29:18.842Z,37.96
2018-09-05T13:31:49.586Z,37.49
2018-09-05T13:34:20.365Z,36.47
2018-09-05T13:36:51.013Z,34.27
2018-09-05T13:39:21.921Z,34.11
2018-09-05T13:41:52.530Z,35.01
2018-09-05T13:44:23.244Z,35.26
2018-09-05T13:46:53.675Z,34.77
2018-09-05T13:49:24.516Z,34.62
2018-09-05T13:52:00.174Z,34.29
2018-09-05T13:54:30.857Z,34.92
2018-09-05T13:57:01.488Z,35.43
2018-09-05T13:59:32.707Z,35.20
2018-09-05T14:02:03.325Z,36.29
2018-09-05T14:04:34.368Z,36.97
2018-09-05T14:07:04.986Z,36.55
2018-09-05T14:09:35.932Z,37.80
2018-09-05T14:12:06.766Z,37.63
2018-09-05T14:14:37.549Z,38.04
2018-09-05T14:17:08.182Z,37.41
2018-09-05T14:19:38.860Z,37.58
2018-09-05T14:22:09.468Z,36.70
2018-09-05T14:24:40.253Z,37.78
2018-09-05T14:27:10.857Z,37.18
2018-09-05T14:29:41.392Z,38.22
2018-09-05T14:32:11.946Z,37.53
2018-09-05T14:34:42.545Z,38.01
2018-09-05T14:37:13.029Z,36.82
2018-09-05T14:39:44.146Z,38.56
2018-09-05T14:42:14.684Z,37.76
2018-09-05T14:44:45.413Z,37.40
2018-09-05T14:47:15.857Z,36.97
2018-09-05T14:49:46.820Z,37.35
2018-09-05T14:52:17.368Z,38.00
2018-09-05T14:54:48.053Z,36.73
2018-09-05T14:57:18.574Z,36.31
2018-09-05T14:59:50.311Z,37.02
2018-09-05T15:02:21.594Z,36.72
2018-09-05T15:04:52.429Z,37.11
2018-09-05T15:07:23.021Z,37.42
2018-09-05T15:09:53.830Z,37.31
2018-09-05T15:12:24.279Z,36.98
2018-09-05T15:14:54.997Z,36.73
2018-09-05T15:17:25.621Z,36.94
2018-09-05T15:19:56.661Z,36.09
2018-09-05T15:22:27.093Z,35.88
2018-09-05T15:24:57.869Z,35.39
2018-09-05T15:27:28.353Z,35.82
2018-09-05T15:29:59.315Z,36.04
2018-09-05T15:32:29.792Z,36.53
2018-09-05T15:35:00.477Z,36.39
2018-09-05T15:37:30.952Z,35.65
2018-09-05T15:40:01.569Z,35.34
2018-09-05T15:42:32.188Z,35.93
2018-09-05T15:45:02.872Z,35.71
2018-09-05T15:47:33.209Z,36.33
2018-09-05T15:50:05.200Z,35.76
2018-09-05T15:52:35.885Z,35.88
2018-09-05T15:55:06.778Z,37.07
2018-09-05T15:57:37.554Z,36.71
2018-09-05T16:00:08.106Z,35.89
2018-09-05T16:02:38.794Z,36.72
2018-09-05T16:05:09.425Z,37.73
2018-09-05T16:07:39.979Z,37.83
2018-09-05T16:10:10.574Z,38.06
2018-09-05T16:12:41.227Z,37.88
2018-09-05T16:15:11.855Z,37.34
2018-09-05T16:17:42.372Z,36.11
2018-09-05T16:20:13.225Z,36.74
2018-09-05T16:22:43.817Z,36.15
2018-09-05T16:25:14.557Z,36.31
2018-09-05T16:27:45.310Z,35.59
2018-09-05T16:30:16.044Z,36.08
2018-09-05T16:32:46.790Z,36.09
2018-09-05T16:35:17.421Z,36.38
2018-09-05T16:37:47.911Z,36.52
2018-09-05T16:40:18.825Z,36.35
2018-09-05T16:42:49.523Z,35.89
2018-09-05T16:45:20.304Z,35.72
2018-09-05T16:47:50.929Z,35.58
2018-09-05T16:50:21.578Z,36.81
2018-09-05T16:52:52.264Z,37.38
2018-09-05T16:55:23.426Z,35.89
2018-09-05T16:57:54.301Z,35.94
2018-09-05T17:00:25.168Z,35.70
2018-09-05T17:02:55.824Z,36.06
2018-09-05T17:05:26.572Z,35.78
2018-09-05T17:07:57.255Z,35.59
2018-09-05T17:10:28.169Z,35.74
2018-09-05T17:12:58.731Z,36.09
2018-09-05T17:15:29.719Z,36.09
2018-09-05T17:18:00.421Z,37.02
2018-09-05T17:20:31.378Z,36.94
2018-09-05T17:23:02.108Z,36.66
2018-09-05T17:25:32.790Z,36.74
2018-09-05T17:28:03.497Z,36.04
2018-09-05T17:30:34.365Z,36.37
2018-09-05T17:33:04.972Z,35.07
2018-09-05T17:35:35.965Z,35.17
2018-09-05T17:38:06.834Z,34.69
2018-09-05T17:40:37.708Z,35.03
2018-09-05T17:43:08.380Z,35.10
2018-09-05T17:45:39.161Z,34.91
2018-09-05T17:48:09.825Z,36.26
2018-09-05T17:50:40.793Z,35.11
2018-09-05T17:53:11.389Z,35.40
2018-09-05T17:55:42.322Z,35.03
2018-09-05T17:58:12.908Z,34.59
2018-09-05T18:00:43.949Z,34.81
2018-09-05T18:03:14.582Z,35.06
2018-09-05T18:05:45.565Z,35.15
2018-09-05T18:08:16.211Z,35.29
2018-09-05T18:10:47.207Z,35.46
2018-09-05T18:13:17.837Z,35.68
2018-09-05T18:15:48.828Z,35.46
2018-09-05T18:18:19.592Z,35.97
2018-09-05T18:20:51.122Z,36.43
2018-09-05T18:23:21.741Z,35.68
2018-09-05T18:25:52.513Z,35.48
2018-09-05T18:28:23.094Z,35.17
2018-09-05T18:30:54.149Z,35.32
2018-09-05T18:33:24.709Z,35.32
2018-09-05T18:35:55.516Z,34.43
2018-09-05T18:38:26.148Z,34.48
2018-09-05T18:40:57.229Z,34.30
2018-09-05T18:43:27.846Z,33.72
2018-09-05T18:45:58.493Z,34.59
2018-09-05T18:48:29.038Z,35.36
2018-09-05T18:51:00.431Z,35.64
2018-09-05T18:53:30.960Z,35.28
2018-09-05T18:56:01.988Z,35.10
2018-09-05T18:58:32.478Z,34.75
2018-09-05T19:01:03.470Z,35.14
2018-09-05T19:03:33.979Z,34.23
2018-09-05T19:06:04.656Z,34.45
2018-09-05T19:08:36.084Z,34.74
2018-09-05T19:11:07.825Z,35.72
2018-09-05T19:13:40.131Z,36.16
2018-09-05T19:16:11.006Z,35.52
2018-09-05T19:18:41.649Z,35.50
2018-09-05T19:21:12.652Z,36.14
2018-09-05T19:23:43.161Z,35.15
2018-09-05T19:26:13.992Z,35.28
2018-09-05T19:28:44.430Z,34.88
2018-09-05T19:31:15.311Z,34.39
2018-09-05T19:33:46.126Z,33.59
2018-09-05T19:36:16.914Z,34.68
2018-09-05T19:38:47.797Z,33.93
2018-09-05T19:41:18.689Z,34.31
2018-09-05T19:43:49.296Z,33.59
2018-09-05T19:46:20.226Z,34.46
2018-09-05T19:48:51.250Z,34.51
2018-09-05T19:51:21.797Z,34.74
2018-09-05T19:53:52.329Z,35.49
2018-09-05T19:56:22.985Z,35.37
2018-09-05T19:58:53.493Z,34.67
2018-09-05T20:01:24.450Z,34.03
2018-09-05T20:03:55.084Z,34.50
2018-09-05T20:06:25.834Z,34.91
2018-09-05T20:08:56.759Z,34.85
2018-09-05T20:11:27.912Z,34.29
2018-09-05T20:13:59.784Z,34.02
2018-09-05T20:16:30.836Z,33.64
2018-09-05T20:19:01.656Z,33.92
2018-09-05T20:21:32.863Z,33.42
2018-09-05T20:24:03.572Z,32.89
2018-09-05T20:26:34.850Z,33.56
2018-09-05T20:29:05.781Z,33.28
2018-09-05T20:31:36.868Z,33.34
2018-09-05T20:34:07.880Z,33.46
2018-09-05T20:36:39.685Z,34.43
2018-09-05T20:39:12.474Z,35.03
2018-09-05T20:41:43.163Z,35.04
2018-09-05T20:44:13.701Z,34.84
2018-09-05T20:46:44.413Z,34.50
2018-09-05T20:49:14.924Z,34.00
2018-09-05T20:51:45.749Z,33.44
2018-09-05T20:54:16.472Z,33.85
2018-09-05T20:56:47.129Z,33.86
2018-09-05T20:59:17.875Z,33.91
2018-09-05T21:01:48.621Z,34.12
2018-09-05T21:04:19.270Z,34.10
2018-09-05T21:06:50.051Z,33.82
2018-09-05T21:09:20.727Z,34.57
2018-09-05T21:11:51.633Z,34.55
2018-09-05T21:14:22.648Z,34.55
2018-09-05T21:16:53.181Z,34.83
2018-09-05T21:19:24.122Z,33.60
2018-09-05T21:21:55.086Z,32.70
2018-09-05T21:24:25.712Z,32.73
2018-09-05T21:26:56.845Z,32.67
2018-09-05T21:29:27.582Z,33.13
2018-09-05T21:31:58.663Z,32.42
2018-09-05T21:34:29.459Z,32.48
2018-09-05T21:37:00.527Z,32.03
2018-09-05T21:39:31.650Z,32.08
2018-09-05T21:42:02.597Z,32.37
2018-09-05T21:44:33.421Z,32.29
2018-09-05T21:47:04.445Z,32.40
2018-09-05T21:49:35.583Z,31.50
2018-09-05T21:52:06.908Z,32.01
2018-09-05T21:54:37.708Z,31.81
2018-09-05T21:57:10.450Z,31.84
2018-09-05T21:59:41.617Z,32.69
2018-09-05T22:02:12.522Z,32.48
2018-09-05T22:04:43.182Z,32.07
2018-09-05T22:07:14.058Z,31.80
2018-09-05T22:09:44.585Z,32.02
2018-09-05T22:12:15.417Z,32.74
2018-09-05T22:14:46.266Z,32.58
2018-09-05T22:17:17.039Z,33.08
2018-09-05T22:19:47.714Z,32.49
2018-09-05T22:22:18.764Z,32.93
2018-09-05T22:24:49.413Z,32.34
2018-09-05T22:27:20.344Z,32.18
2018-09-05T22:29:51.000Z,31.74
2018-09-05T22:32:22.151Z,32.36
2018-09-05T22:34:52.690Z,31.96
2018-09-05T22:37:24.093Z,31.66
2018-09-05T22:39:54.977Z,32.19
2018-09-05T22:42:25.993Z,32.57
2018-09-05T22:45:12.840Z,31.81
2018-09-05T22:48:05.758Z,31.77
2018-09-05T22:51:01.451Z,32.19
2018-09-05T22:55:54.552Z,32.95
2018-09-05T22:58:48.875Z,32.62
2018-09-05T23:01:36.190Z,32.19
2018-09-05T23:04:36.539Z,31.77
2018-09-05T23:07:32.670Z,31.97
2018-09-05T23:10:19.527Z,31.50
2018-09-05T23:13:06.702Z,31.78
2018-09-05T23:15:53.720Z,32.01
2018-09-05T23:19:44.474Z,32.54
2018-09-05T23:22:15.088Z,32.11
2018-09-05T23:24:46.054Z,31.96
2018-09-05T23:27:16.605Z,32.20
2018-09-05T23:29:47.365Z,32.37
2018-09-05T23:32:17.953Z,32.54
2018-09-05T23:34:48.714Z,32.52
2018-09-05T23:37:19.310Z,32.01
2018-09-05T23:39:50.291Z,32.44
2018-09-05T23:42:20.923Z,31.78
2018-09-05T23:44:51.883Z,32.67
2018-09-05T23:47:23.139Z,31.94
2018-09-05T23:49:54.026Z,31.45
2018-09-05T23:52:24.719Z,31.76
2018-09-05T23:54:55.498Z,31.37
2018-09-05T23:57:26.159Z,31.36
2018-09-05T23:59:56.974Z,31.92
